EPKT/KTW METAR and TAF weather

Enter ICAO airport designator
Station Type Date Time Source
EPKT METAR 2019/04/18 20:00 UTC NOAA

EPKT 182000Z VRB01KT CAVOK 06/00 Q1030


Station Type Date Time Source
EPKT Decoded METAR 2019/04/18 20:00 UTC NOAA

Katowice, Poland (EPKT) 50-14N 019-02E 284M
Apr 18, 2019 - 04:00 PM EDT / 2019.04.18 2000 UTC
Wind: Variable at 1 MPH (1 KT):0
Visibility: greater than 7 mile(s):0
Temperature: 42 F (6 C)
Dew Point: 32 F (0 C)
Relative Humidity: 65%
Pressure (altimeter): 30.42 in. Hg (1030 hPa)
ob: EPKT 182000Z VRB01KT CAVOK 06/00 Q1030
cycle: 20

Station Type Date Time Source
EPKT TAF 2019/04/18 18:33 UTC NOAA

TAF EPKT 181730Z 1818/1918 05005KT CAVOK

Example: see airport list